Time;durP1;ratioP1;P1;durP2;ratioP2;P2;SDS_P1;SDS_P2;PMS_P1;PMS_P2;Temp;Humidity;BMP_temperature;BMP_pressure;BME280_temperature;BME280_humidity;BME280_pressure;Samples;Min_cycle;Max_cycle;Signal;HPM_P1;HPM_P2
2021/01/17 00:00:17;;;;;;;33.08;16.15;;;;;;;;;;4962111;28;20047;-79
2021/01/17 00:02:46;;;;;;;34.22;17.38;;;;;;;;;;4945128;28;20054;-81
2021/01/17 00:05:14;;;;;;;35.40;16.98;;;;;;;;;;4957733;28;20117;-80
2021/01/17 00:07:40;;;;;;;38.67;19.02;;;;;;;;;;4954714;28;20054;-79
2021/01/17 00:10:07;;;;;;;36.22;19.25;;;;;;;;;;4957079;28;20053;-79
2021/01/17 00:12:33;;;;;;;35.70;18.33;;;;;;;;;;4956453;28;20089;-79
2021/01/17 00:15:00;;;;;;;33.92;16.80;;;;;;;;;;4969868;28;20392;-80
2021/01/17 00:17:27;;;;;;;35.58;18.23;;;;;;;;;;4954860;28;20773;-79
2021/01/17 00:19:54;;;;;;;36.33;18.83;;;;;;;;;;4974971;28;20033;-81
2021/01/17 00:22:20;;;;;;;40.28;19.02;;;;;;;;;;4964714;28;20031;-79
2021/01/17 00:24:46;;;;;;;37.53;18.88;;;;;;;;;;4965571;28;20157;-79
2021/01/17 00:27:13;;;;;;;34.35;17.90;;;;;;;;;;4972662;28;20034;-80
2021/01/17 00:29:40;;;;;;;38.53;20.27;;;;;;;;;;4972573;28;20029;-79
2021/01/17 00:32:13;;;;;;;39.28;20.80;;;;;;;;;;4956616;28;20035;-79
2021/01/17 00:34:39;;;;;;;37.47;19.25;;;;;;;;;;4952227;28;20023;-79
2021/01/17 00:37:05;;;;;;;41.45;20.27;;;;;;;;;;4955668;28;20552;-80
2021/01/17 00:39:32;;;;;;;38.65;19.60;;;;;;;;;;4956434;28;20023;-79
2021/01/17 00:41:58;;;;;;;41.58;21.08;;;;;;;;;;4964690;28;20057;-79
2021/01/17 00:44:24;;;;;;;43.67;20.92;;;;;;;;;;4952348;28;20031;-79
2021/01/17 00:46:50;;;;;;;47.25;21.75;;;;;;;;;;4953228;28;20118;-79
2021/01/17 00:49:17;;;;;;;46.97;22.48;;;;;;;;;;4969352;28;20098;-81
2021/01/17 00:51:45;;;;;;;48.95;24.08;;;;;;;;;;4971913;28;20520;-79
2021/01/17 00:54:12;;;;;;;49.10;23.67;;;;;;;;;;4956423;28;20070;-79
2021/01/17 00:56:38;;;;;;;43.78;22.27;;;;;;;;;;4955385;28;20129;-79
2021/01/17 00:59:05;;;;;;;51.78;25.10;;;;;;;;;;4956531;28;20026;-80
2021/01/17 01:01:41;;;;;;;51.83;24.27;;;;;;;;;;4955646;28;20031;-79
2021/01/17 01:04:11;;;;;;;52.50;26.35;;;;;;;;;;4972123;28;20030;-79
2021/01/17 01:06:37;;;;;;;44.25;24.25;;;;;;;;;;4971526;28;20034;-79
2021/01/17 01:09:10;;;;;;;42.70;21.67;;;;;;;;;;4971930;28;20109;-79
2021/01/17 01:11:37;;;;;;;46.38;22.02;;;;;;;;;;4955708;28;20038;-79
2021/01/17 01:14:07;;;;;;;45.75;21.70;;;;;;;;;;4962256;28;20043;-80
2021/01/17 01:16:35;;;;;;;45.08;21.73;;;;;;;;;;4962017;28;20476;-79
2021/01/17 01:19:02;;;;;;;45.50;21.95;;;;;;;;;;4972267;28;20082;-79
2021/01/17 01:21:29;;;;;;;49.33;21.02;;;;;;;;;;4970305;28;20034;-79
2021/01/17 01:23:55;;;;;;;38.47;19.25;;;;;;;;;;4963819;28;20026;-79
2021/01/17 01:26:25;;;;;;;44.78;20.00;;;;;;;;;;4967668;28;20023;-79
2021/01/17 01:28:53;;;;;;;41.50;21.05;;;;;;;;;;4948958;28;20073;-80
2021/01/17 01:31:23;;;;;;;42.55;21.65;;;;;;;;;;4955590;28;20117;-79
2021/01/17 01:33:50;;;;;;;43.05;22.27;;;;;;;;;;4955328;28;20026;-79
2021/01/17 01:36:23;;;;;;;46.17;21.17;;;;;;;;;;4970890;28;20030;-79
2021/01/17 01:38:49;;;;;;;44.45;21.52;;;;;;;;;;4968423;28;20370;-79
2021/01/17 01:41:16;;;;;;;45.17;21.83;;;;;;;;;;4955156;28;20027;-81
2021/01/17 01:43:43;;;;;;;51.35;21.67;;;;;;;;;;4950817;28;20058;-79
2021/01/17 01:46:17;;;;;;;58.30;26.58;;;;;;;;;;4954909;28;20081;-79
2021/01/17 01:48:46;;;;;;;50.67;24.10;;;;;;;;;;4954969;28;20031;-79
2021/01/17 01:51:16;;;;;;;47.25;21.00;;;;;;;;;;4958013;28;20481;-80
2021/01/17 01:53:42;;;;;;;51.70;24.35;;;;;;;;;;4936456;29;20035;-80
2021/01/17 01:56:09;;;;;;;50.40;23.23;;;;;;;;;;4949337;28;20571;-79
2021/01/17 01:58:37;;;;;;;47.72;21.58;;;;;;;;;;4971573;28;20035;-80
2021/01/17 02:01:06;;;;;;;47.67;21.58;;;;;;;;;;4953703;28;20062;-80
2021/01/17 02:03:32;;;;;;;50.03;23.58;;;;;;;;;;4954904;28;20088;-80
2021/01/17 02:05:58;;;;;;;50.95;24.27;;;;;;;;;;4954114;28;20121;-81
2021/01/17 02:08:43;;;;;;;47.55;23.75;;;;;;;;;;4971680;28;20142;-79
2021/01/17 02:11:25;;;;;;;52.45;23.35;;;;;;;;;;4955209;28;20062;-79
2021/01/17 02:14:01;;;;;;;47.63;22.15;;;;;;;;;;4971257;28;20339;-80
2021/01/17 02:16:27;;;;;;;47.88;22.17;;;;;;;;;;4951208;29;20146;-79
2021/01/17 02:18:55;;;;;;;57.00;23.73;;;;;;;;;;4966385;28;20058;-81
2021/01/17 02:21:21;;;;;;;48.95;21.95;;;;;;;;;;4984796;28;20034;-79
2021/01/17 02:23:59;;;;;;;46.47;22.83;;;;;;;;;;4972841;28;20609;-81
2021/01/17 02:26:26;;;;;;;45.20;21.10;;;;;;;;;;4959299;28;20051;-81
2021/01/17 02:28:52;;;;;;;44.47;21.58;;;;;;;;;;4967050;28;20413;-81
2021/01/17 02:31:19;;;;;;;42.60;21.15;;;;;;;;;;4973351;28;20031;-80
2021/01/17 02:33:47;;;;;;;45.17;21.35;;;;;;;;;;4972966;28;20049;-82
2021/01/17 02:36:28;;;;;;;47.40;22.80;;;;;;;;;;4970605;28;20035;-81
2021/01/17 02:38:54;;;;;;;46.83;21.33;;;;;;;;;;4956857;28;20033;-81
2021/01/17 02:41:29;;;;;;;45.63;21.73;;;;;;;;;;4958170;28;20513;-81
2021/01/17 02:43:55;;;;;;;42.80;21.00;;;;;;;;;;4956507;28;20066;-81
2021/01/17 02:46:21;;;;;;;43.28;21.30;;;;;;;;;;4957621;28;20046;-81
2021/01/17 02:48:47;;;;;;;45.20;22.02;;;;;;;;;;4972364;28;20054;-81
2021/01/17 02:51:13;;;;;;;42.88;20.00;;;;;;;;;;4977183;28;20030;-81
2021/01/17 02:53:49;;;;;;;46.70;20.50;;;;;;;;;;4960155;28;20022;-80
2021/01/17 02:56:20;;;;;;;45.17;19.65;;;;;;;;;;4956904;29;20031;-81
2021/01/17 02:58:48;;;;;;;42.55;19.48;;;;;;;;;;4974665;28;20420;-81
2021/01/17 03:01:18;;;;;;;41.60;20.85;;;;;;;;;;4951788;28;20450;-81
2021/01/17 03:03:46;;;;;;;43.42;20.83;;;;;;;;;;4960390;29;20118;-81
2021/01/17 03:06:12;;;;;;;52.75;22.10;;;;;;;;;;4972702;28;20097;-80
2021/01/17 03:08:38;;;;;;;44.67;21.67;;;;;;;;;;4961988;28;20687;-81
2021/01/17 03:11:05;;;;;;;46.05;21.85;;;;;;;;;;4962464;28;20045;-81
2021/01/17 03:13:32;;;;;;;52.20;24.40;;;;;;;;;;4960444;28;20027;-81
2021/01/17 03:15:58;;;;;;;52.28;23.42;;;;;;;;;;4970891;28;20067;-81
2021/01/17 03:18:25;;;;;;;46.55;21.95;;;;;;;;;;4983756;28;20058;-81
2021/01/17 03:20:51;;;;;;;45.95;21.88;;;;;;;;;;4977045;28;20027;-81
2021/01/17 03:23:17;;;;;;;47.45;20.90;;;;;;;;;;4994502;28;20038;-81
2021/01/17 03:25:44;;;;;;;48.13;21.63;;;;;;;;;;4961110;28;20027;-81
2021/01/17 03:28:10;;;;;;;48.22;23.05;;;;;;;;;;4961589;28;20085;-81
2021/01/17 03:30:36;;;;;;;48.65;21.73;;;;;;;;;;4961112;28;20721;-81
2021/01/17 03:33:02;;;;;;;46.85;22.33;;;;;;;;;;4961069;28;20019;-81
2021/01/17 03:35:28;;;;;;;43.70;20.50;;;;;;;;;;4960541;28;20038;-81
2021/01/17 03:37:55;;;;;;;47.35;22.15;;;;;;;;;;4959969;28;20505;-81
2021/01/17 03:40:22;;;;;;;43.45;22.02;;;;;;;;;;4960180;28;20113;-81
2021/01/17 03:42:48;;;;;;;47.53;21.35;;;;;;;;;;4958074;28;20027;-80
2021/01/17 03:45:14;;;;;;;47.17;21.08;;;;;;;;;;4959261;28;20030;-81
2021/01/17 03:47:40;;;;;;;44.92;21.65;;;;;;;;;;4979712;28;21461;-80
2021/01/17 03:50:06;;;;;;;40.72;20.02;;;;;;;;;;4970786;28;20043;-81
2021/01/17 03:52:32;;;;;;;39.92;20.15;;;;;;;;;;4977777;28;20035;-80
2021/01/17 03:54:59;;;;;;;43.78;19.90;;;;;;;;;;4982392;28;20050;-80
2021/01/17 03:57:25;;;;;;;46.45;23.17;;;;;;;;;;4972161;28;20039;-80
2021/01/17 03:59:51;;;;;;;45.17;21.17;;;;;;;;;;4976358;28;20573;-80
2021/01/17 04:02:17;;;;;;;43.15;19.88;;;;;;;;;;4988265;28;20042;-78
2021/01/17 04:04:44;;;;;;;45.47;20.55;;;;;;;;;;4961001;28;20110;-81
2021/01/17 04:07:11;;;;;;;43.47;20.88;;;;;;;;;;4961330;28;20039;-81
2021/01/17 04:09:37;;;;;;;43.70;21.70;;;;;;;;;;4970664;28;20049;-81
2021/01/17 04:12:03;;;;;;;47.70;20.67;;;;;;;;;;4968372;28;20419;-81
2021/01/17 04:14:29;;;;;;;46.88;22.20;;;;;;;;;;4982363;28;20035;-81
2021/01/17 04:16:55;;;;;;;43.53;21.15;;;;;;;;;;4953168;29;20023;-81
2021/01/17 04:19:21;;;;;;;47.15;21.65;;;;;;;;;;4966410;28;20038;-81
2021/01/17 04:21:47;;;;;;;47.22;21.77;;;;;;;;;;4953787;28;20508;-81
2021/01/17 04:24:15;;;;;;;43.88;20.67;;;;;;;;;;4974068;28;20043;-81
2021/01/17 04:26:42;;;;;;;47.15;20.40;;;;;;;;;;4939167;28;20098;-81
2021/01/17 04:29:08;;;;;;;44.72;22.40;;;;;;;;;;4964186;28;20437;-81
2021/01/17 04:31:43;;;;;;;44.63;21.70;;;;;;;;;;4952984;28;20035;-81
2021/01/17 04:34:10;;;;;;;43.63;20.35;;;;;;;;;;4968273;28;20007;-80
2021/01/17 04:36:36;;;;;;;46.75;21.27;;;;;;;;;;4960472;29;20042;-81
2021/01/17 04:39:03;;;;;;;45.05;22.02;;;;;;;;;;4959900;28;20216;-81
2021/01/17 04:41:29;;;;;;;49.80;21.55;;;;;;;;;;4958912;28;20181;-81
2021/01/17 04:43:57;;;;;;;49.13;21.35;;;;;;;;;;4959262;28;20031;-81
2021/01/17 04:46:24;;;;;;;50.47;22.65;;;;;;;;;;4958330;28;20042;-81
2021/01/17 04:48:53;;;;;;;48.88;21.73;;;;;;;;;;4958578;28;20041;-81
2021/01/17 04:51:20;;;;;;;53.17;22.67;;;;;;;;;;4957204;28;20058;-81
2021/01/17 04:53:48;;;;;;;41.38;20.98;;;;;;;;;;4960710;28;20031;-81
2021/01/17 04:56:28;;;;;;;44.45;21.73;;;;;;;;;;4957865;28;20030;-81
2021/01/17 04:59:06;;;;;;;50.72;23.63;;;;;;;;;;4956987;28;20101;-79
2021/01/17 05:01:55;;;;;;;46.47;20.30;;;;;;;;;;4968493;28;20043;-81
2021/01/17 05:04:44;;;;;;;46.75;22.45;;;;;;;;;;4947191;28;20087;-82
2021/01/17 05:07:16;;;;;;;46.03;21.45;;;;;;;;;;4957410;28;20086;-81
2021/01/17 05:09:46;;;;;;;50.70;22.88;;;;;;;;;;4947853;28;20078;-81
2021/01/17 05:12:13;;;;;;;46.75;22.25;;;;;;;;;;4939113;29;20028;-81
2021/01/17 05:15:06;;;;;;;46.67;20.88;;;;;;;;;;4956029;28;20078;-81
2021/01/17 05:17:39;;;;;;;45.60;21.77;;;;;;;;;;4949449;28;20856;-81
2021/01/17 05:20:06;;;;;;;43.67;21.65;;;;;;;;;;4957709;28;20093;-81
2021/01/17 05:22:32;;;;;;;50.75;23.50;;;;;;;;;;4962171;28;20031;-81
2021/01/17 05:24:59;;;;;;;48.78;22.02;;;;;;;;;;4954674;28;20066;-81
2021/01/17 05:27:25;;;;;;;46.10;21.38;;;;;;;;;;4960980;28;20113;-81
2021/01/17 05:29:51;;;;;;;49.60;22.10;;;;;;;;;;4939053;28;20037;-81
2021/01/17 05:32:17;;;;;;;51.47;22.55;;;;;;;;;;4956814;28;20039;-81
2021/01/17 05:34:43;;;;;;;48.35;22.10;;;;;;;;;;4956345;28;20037;-81
2021/01/17 05:37:14;;;;;;;46.03;22.77;;;;;;;;;;4973187;28;20098;-81
2021/01/17 05:39:55;;;;;;;49.92;22.48;;;;;;;;;;4956776;28;20089;-81
2021/01/17 05:42:22;;;;;;;46.65;22.77;;;;;;;;;;4973678;28;20027;-81
2021/01/17 05:44:48;;;;;;;49.40;22.75;;;;;;;;;;4941684;28;20035;-81
2021/01/17 05:47:14;;;;;;;46.05;22.92;;;;;;;;;;4966422;28;20485;-81
2021/01/17 05:49:40;;;;;;;48.00;23.52;;;;;;;;;;4955813;28;20422;-81
2021/01/17 05:52:11;;;;;;;50.88;25.27;;;;;;;;;;4956887;28;20034;-81
2021/01/17 05:54:37;;;;;;;46.88;23.67;;;;;;;;;;4953548;28;20104;-80
2021/01/17 05:57:10;;;;;;;49.63;24.02;;;;;;;;;;4955830;28;20023;-81
2021/01/17 05:59:37;;;;;;;47.65;22.50;;;;;;;;;;4956806;28;20038;-80
2021/01/17 06:02:03;;;;;;;45.45;22.20;;;;;;;;;;4955833;28;20093;-81
2021/01/17 06:04:30;;;;;;;48.58;23.33;;;;;;;;;;4958773;28;20045;-81
2021/01/17 06:06:56;;;;;;;50.13;23.35;;;;;;;;;;4955200;28;20027;-81
2021/01/17 06:09:26;;;;;;;45.30;22.55;;;;;;;;;;4954640;28;20031;-80
2021/01/17 06:11:58;;;;;;;53.47;24.45;;;;;;;;;;4968380;28;20057;-80
2021/01/17 06:14:25;;;;;;;53.75;24.50;;;;;;;;;;4958968;28;20665;-79
2021/01/17 06:16:57;;;;;;;44.97;23.27;;;;;;;;;;4956647;28;20820;-80
2021/01/17 06:19:30;;;;;;;54.20;23.98;;;;;;;;;;4955695;28;20038;-81
2021/01/17 06:21:59;;;;;;;48.60;23.83;;;;;;;;;;4954990;28;20122;-81
2021/01/17 06:24:35;;;;;;;52.08;24.33;;;;;;;;;;4973347;28;20027;-80
2021/01/17 06:27:02;;;;;;;46.90;22.73;;;;;;;;;;4971456;28;20057;-82
2021/01/17 06:29:42;;;;;;;51.67;22.73;;;;;;;;;;4959516;28;20019;-80
2021/01/17 06:32:11;;;;;;;45.45;23.33;;;;;;;;;;4974495;28;20031;-80
2021/01/17 06:34:42;;;;;;;45.25;23.13;;;;;;;;;;4963801;28;20042;-81
2021/01/17 06:37:10;;;;;;;52.83;25.05;;;;;;;;;;4951577;28;20030;-80
2021/01/17 06:39:41;;;;;;;50.92;24.90;;;;;;;;;;4969405;28;20772;-80
2021/01/17 06:42:09;;;;;;;48.88;22.90;;;;;;;;;;4970592;28;20058;-80
2021/01/17 06:44:36;;;;;;;55.33;25.35;;;;;;;;;;4953977;28;20089;-81
2021/01/17 06:47:02;;;;;;;46.78;22.17;;;;;;;;;;4939258;28;20058;-81
2021/01/17 06:49:29;;;;;;;52.38;25.85;;;;;;;;;;4956036;28;20038;-80
2021/01/17 06:51:56;;;;;;;49.97;24.23;;;;;;;;;;4954066;28;20480;-80
2021/01/17 06:54:23;;;;;;;50.65;25.05;;;;;;;;;;4963798;28;20105;-80
2021/01/17 06:56:50;;;;;;;47.03;23.60;;;;;;;;;;4954109;28;20031;-80
2021/01/17 06:59:49;;;;;;;50.00;24.73;;;;;;;;;;4972856;28;20055;-80
2021/01/17 07:02:15;;;;;;;49.80;22.70;;;;;;;;;;4913100;28;20034;-80
2021/01/17 07:04:47;;;;;;;49.53;24.30;;;;;;;;;;4970660;28;20050;-80
2021/01/17 07:07:32;;;;;;;46.83;23.00;;;;;;;;;;4954549;28;20038;-80
2021/01/17 07:09:58;;;;;;;57.45;25.45;;;;;;;;;;4944727;29;20115;-80
2021/01/17 07:12:38;;;;;;;52.13;22.05;;;;;;;;;;4951557;28;20045;-80
2021/01/17 07:15:08;;;;;;;48.78;23.52;;;;;;;;;;4970195;28;20041;-80
2021/01/17 07:17:35;;;;;;;45.75;21.73;;;;;;;;;;4971499;28;20039;-80
2021/01/17 07:20:03;;;;;;;50.38;24.63;;;;;;;;;;4974036;28;20026;-80
2021/01/17 07:22:31;;;;;;;49.42;22.45;;;;;;;;;;4975159;28;20026;-80
2021/01/17 07:24:57;;;;;;;48.30;23.17;;;;;;;;;;4953782;28;20843;-80
2021/01/17 07:27:29;;;;;;;48.67;25.20;;;;;;;;;;4973469;28;20101;-80
2021/01/17 07:29:59;;;;;;;49.00;25.08;;;;;;;;;;4976124;28;20027;-80
2021/01/17 07:32:30;;;;;;;55.65;27.00;;;;;;;;;;4957595;28;20065;-80
2021/01/17 07:35:04;;;;;;;47.30;23.98;;;;;;;;;;4960540;28;20034;-80
2021/01/17 07:37:30;;;;;;;45.30;22.67;;;;;;;;;;4968124;28;20063;-79
2021/01/17 07:39:59;;;;;;;47.28;22.30;;;;;;;;;;4960297;28;20034;-80
2021/01/17 07:42:26;;;;;;;50.60;23.67;;;;;;;;;;4959870;28;20031;-80
2021/01/17 07:44:54;;;;;;;48.90;22.63;;;;;;;;;;4960331;28;20092;-80
2021/01/17 07:47:28;;;;;;;49.70;25.98;;;;;;;;;;4959174;28;20030;-80
2021/01/17 07:49:56;;;;;;;49.03;25.70;;;;;;;;;;4974655;28;20062;-82
2021/01/17 07:52:22;;;;;;;42.70;22.50;;;;;;;;;;4942735;29;20035;-82
2021/01/17 07:54:49;;;;;;;48.90;25.35;;;;;;;;;;4953008;28;20278;-82
2021/01/17 07:57:17;;;;;;;46.20;22.73;;;;;;;;;;4962217;28;20027;-80
2021/01/17 07:59:43;;;;;;;42.75;21.50;;;;;;;;;;4973663;28;20027;-80
2021/01/17 08:02:10;;;;;;;38.50;19.90;;;;;;;;;;4970991;28;20023;-80
2021/01/17 08:04:47;;;;;;;42.27;22.07;;;;;;;;;;4975220;28;20289;-79
2021/01/17 08:07:29;;;;;;;43.23;22.90;;;;;;;;;;4973420;28;20301;-80
2021/01/17 08:09:55;;;;;;;44.78;22.63;;;;;;;;;;4973984;28;20291;-81
2021/01/17 08:12:36;;;;;;;44.70;22.53;;;;;;;;;;4975315;28;20022;-81
2021/01/17 08:15:14;;;;;;;41.47;20.33;;;;;;;;;;4968754;28;20267;-80
2021/01/17 08:17:42;;;;;;;37.43;18.47;;;;;;;;;;4974331;28;20644;-80
2021/01/17 08:20:09;;;;;;;34.80;19.47;;;;;;;;;;4958400;28;20259;-80
2021/01/17 08:22:35;;;;;;;33.73;17.20;;;;;;;;;;4968917;28;20270;-81
2021/01/17 08:25:02;;;;;;;36.63;19.37;;;;;;;;;;4975216;28;20270;-81
2021/01/17 08:27:31;;;;;;;37.17;20.27;;;;;;;;;;4973557;28;20736;-80
2021/01/17 08:30:10;;;;;;;36.97;20.97;;;;;;;;;;4961670;28;20298;-81
2021/01/17 08:32:37;;;;;;;40.20;22.47;;;;;;;;;;4971691;28;20293;-80
2021/01/17 08:35:22;;;;;;;41.10;22.43;;;;;;;;;;4957637;28;20308;-80
2021/01/17 08:37:54;;;;;;;34.20;19.27;;;;;;;;;;4956556;28;20834;-80
2021/01/17 08:40:29;;;;;;;35.17;21.07;;;;;;;;;;4977082;28;20274;-80
2021/01/17 08:42:56;;;;;;;31.00;16.90;;;;;;;;;;4958275;28;20299;-81
2021/01/17 08:45:22;;;;;;;28.63;15.90;;;;;;;;;;4976536;28;20691;-81
2021/01/17 08:47:52;;;;;;;32.07;17.47;;;;;;;;;;4968627;28;20286;-81
2021/01/17 08:50:37;;;;;;;28.07;14.53;;;;;;;;;;4975546;28;20765;-81
2021/01/17 08:53:13;;;;;;;30.30;16.17;;;;;;;;;;4953811;28;20290;-81
2021/01/17 08:55:39;;;;;;;34.13;17.77;;;;;;;;;;4944949;28;20282;-81
2021/01/17 08:58:05;;;;;;;31.80;17.37;;;;;;;;;;4964331;28;20293;-81
2021/01/17 09:00:49;;;;;;;33.60;18.60;;;;;;;;;;4975697;28;20296;-81
2021/01/17 09:03:31;;;;;;;39.47;20.03;;;;;;;;;;4962622;28;20350;-81
2021/01/17 09:05:58;;;;;;;33.33;17.43;;;;;;;;;;4971254;28;20274;-79
2021/01/17 09:08:24;;;;;;;29.00;14.67;;;;;;;;;;4972508;28;20283;-80
2021/01/17 09:10:50;;;;;;;27.33;14.90;;;;;;;;;;4956225;28;20356;-80
2021/01/17 09:13:17;;;;;;;27.17;15.27;;;;;;;;;;4970605;28;20290;-81
2021/01/17 09:15:50;;;;;;;34.13;17.80;;;;;;;;;;4973660;28;20609;-80
2021/01/17 09:18:23;;;;;;;27.23;15.43;;;;;;;;;;4958272;28;20278;-80
2021/01/17 09:20:51;;;;;;;32.13;18.35;;;;;;;;;;4954519;28;20279;-81
2021/01/17 09:23:18;;;;;;;26.93;15.47;;;;;;;;;;4972261;28;20027;-81
2021/01/17 09:25:45;;;;;;;29.50;15.50;;;;;;;;;;4972106;28;20282;-81
2021/01/17 09:28:11;;;;;;;25.73;14.40;;;;;;;;;;4970197;28;20285;-80
2021/01/17 09:30:37;;;;;;;24.57;13.83;;;;;;;;;;4969872;28;20279;-81
2021/01/17 09:33:04;;;;;;;23.20;13.47;;;;;;;;;;4974238;28;20286;-81
2021/01/17 09:35:30;;;;;;;25.53;15.13;;;;;;;;;;4963666;28;20294;-81
2021/01/17 09:38:00;;;;;;;27.63;14.87;;;;;;;;;;4972231;28;20298;-79
2021/01/17 09:40:26;;;;;;;25.37;13.40;;;;;;;;;;4972497;28;20286;-79
2021/01/17 09:42:53;;;;;;;23.93;14.00;;;;;;;;;;4958026;28;20278;-80
2021/01/17 09:45:20;;;;;;;27.30;15.70;;;;;;;;;;4957260;28;20270;-80
2021/01/17 09:47:46;;;;;;;42.33;24.73;;;;;;;;;;4973315;28;20267;-80
2021/01/17 09:50:12;;;;;;;27.93;15.67;;;;;;;;;;4957343;28;20707;-80
2021/01/17 09:52:40;;;;;;;24.30;14.00;;;;;;;;;;4952303;28;20290;-80
2021/01/17 09:55:09;;;;;;;26.57;14.93;;;;;;;;;;4966849;28;20285;-80
2021/01/17 09:57:39;;;;;;;27.47;16.27;;;;;;;;;;4942722;29;20322;-79
2021/01/17 10:00:22;;;;;;;28.80;15.47;;;;;;;;;;4965032;28;20279;-78
2021/01/17 10:02:49;;;;;;;32.85;20.30;;;;;;;;;;4947690;28;20294;-79
2021/01/17 10:05:38;;;;;;;30.53;16.67;;;;;;;;;;4969840;28;20114;-78
2021/01/17 10:08:06;;;;;;;24.70;13.33;;;;;;;;;;4951398;28;20287;-78
2021/01/17 10:10:33;;;;;;;26.63;15.20;;;;;;;;;;4946041;29;20741;-78
2021/01/17 10:12:59;;;;;;;26.43;14.10;;;;;;;;;;4947806;28;20799;-80
2021/01/17 10:15:25;;;;;;;32.27;18.57;;;;;;;;;;4955999;28;20373;-79
2021/01/17 10:17:53;;;;;;;29.53;15.63;;;;;;;;;;4964874;28;20282;-79
2021/01/17 10:20:23;;;;;;;31.93;17.17;;;;;;;;;;4967336;28;20278;-81
2021/01/17 10:23:16;;;;;;;25.07;14.77;;;;;;;;;;4970825;28;20274;-79
2021/01/17 10:25:45;;;;;;;26.67;15.40;;;;;;;;;;4955366;28;20266;-77
2021/01/17 10:28:13;;;;;;;25.70;15.17;;;;;;;;;;4957449;28;20039;-79
2021/01/17 10:30:41;;;;;;;27.77;14.77;;;;;;;;;;4951904;28;20270;-78
2021/01/17 10:33:15;;;;;;;27.37;16.03;;;;;;;;;;4965997;28;20286;-78
2021/01/17 10:35:40;;;;;;;;;;;;;;;;;;4972177;28;20285;-79
2021/01/17 10:38:08;;;;;;;26.03;14.50;;;;;;;;;;4972681;28;19918;-79
2021/01/17 10:40:35;;;;;;;29.67;18.33;;;;;;;;;;4968928;28;20081;-79
2021/01/17 10:43:02;;;;;;;29.13;15.40;;;;;;;;;;4961390;28;20284;-79
2021/01/17 10:45:29;;;;;;;28.63;17.53;;;;;;;;;;4972267;28;20294;-78
2021/01/17 10:48:25;;;;;;;29.27;16.43;;;;;;;;;;4981300;28;21078;-78
2021/01/17 10:51:00;;;;;;;36.27;21.37;;;;;;;;;;4934239;28;20457;-79
2021/01/17 10:53:29;;;;;;;32.03;17.93;;;;;;;;;;4969236;28;20412;-79
2021/01/17 10:55:56;;;;;;;33.67;18.23;;;;;;;;;;4950916;28;20270;-78
2021/01/17 10:58:24;;;;;;;28.93;16.17;;;;;;;;;;4948641;28;20291;-78
2021/01/17 11:00:54;;;;;;;29.97;17.60;;;;;;;;;;4964080;28;20289;-78
2021/01/17 11:03:27;;;;;;;29.57;17.90;;;;;;;;;;4947724;28;20293;-78
2021/01/17 11:06:12;;;;;;;32.78;21.50;;;;;;;;;;4965409;28;20285;-79
2021/01/17 11:08:50;;;;;;;30.00;17.97;;;;;;;;;;4961400;28;20030;-79
2021/01/17 11:11:16;;;;;;;29.87;16.37;;;;;;;;;;4956934;28;20971;-79
2021/01/17 11:13:43;;;;;;;25.23;15.77;;;;;;;;;;4956452;28;20285;-78
2021/01/17 11:16:10;;;;;;;25.63;15.63;;;;;;;;;;4959877;28;20266;-79
2021/01/17 11:18:36;;;;;;;23.23;13.80;;;;;;;;;;4970855;28;20258;-79
2021/01/17 11:21:03;;;;;;;24.67;14.40;;;;;;;;;;4966548;28;20281;-79
2021/01/17 11:23:30;;;;;;;27.47;14.97;;;;;;;;;;4965967;28;20286;-79
2021/01/17 11:25:57;;;;;;;25.20;16.10;;;;;;;;;;4975449;28;20316;-79
2021/01/17 11:28:28;;;;;;;27.23;17.03;;;;;;;;;;4961635;28;20357;-80
2021/01/17 11:30:55;;;;;;;29.70;16.93;;;;;;;;;;4974486;28;20789;-80
2021/01/17 11:33:26;;;;;;;35.83;17.17;;;;;;;;;;4972987;28;20274;-80
2021/01/17 11:35:52;;;;;;;34.53;17.20;;;;;;;;;;4976635;28;20274;-80
2021/01/17 11:38:18;;;;;;;36.13;20.13;;;;;;;;;;4968504;28;21124;-80
2021/01/17 11:40:44;;;;;;;45.43;20.57;;;;;;;;;;4960823;28;20278;-79
2021/01/17 11:43:13;;;;;;;34.43;18.30;;;;;;;;;;4971696;28;20278;-79
2021/01/17 11:45:44;;;;;;;30.60;17.90;;;;;;;;;;4944658;28;20278;-79
2021/01/17 11:48:11;;;;;;;29.90;17.30;;;;;;;;;;4970698;28;20305;-80
2021/01/17 11:50:41;;;;;;;32.03;19.30;;;;;;;;;;4965389;28;20381;-79
2021/01/17 11:53:12;;;;;;;26.67;16.40;;;;;;;;;;4961317;28;20462;-79
2021/01/17 11:55:38;;;;;;;25.07;14.33;;;;;;;;;;4969699;28;20282;-80
2021/01/17 11:58:12;;;;;;;26.90;16.70;;;;;;;;;;4978682;28;20266;-78
2021/01/17 12:00:48;;;;;;;29.33;17.10;;;;;;;;;;4965020;28;20391;-78
2021/01/17 12:03:27;;;;;;;24.20;15.87;;;;;;;;;;4973435;28;20041;-79
2021/01/17 12:06:00;;;;;;;25.53;15.40;;;;;;;;;;4960767;28;20349;-79
2021/01/17 12:08:47;;;;;;;24.63;13.40;;;;;;;;;;4958789;29;20282;-79
2021/01/17 12:11:26;;;;;;;26.90;15.43;;;;;;;;;;4964975;28;20386;-79
2021/01/17 12:13:52;;;;;;;23.70;14.27;;;;;;;;;;4992521;28;20270;-79
2021/01/17 12:16:41;;;;;;;25.93;14.63;;;;;;;;;;4959257;28;20858;-79
2021/01/17 12:19:08;;;;;;;24.70;15.00;;;;;;;;;;4970829;28;20308;-79
2021/01/17 12:21:35;;;;;;;19.97;12.97;;;;;;;;;;4958823;28;21154;-82
2021/01/17 12:24:02;;;;;;;24.03;15.07;;;;;;;;;;4951646;28;20317;-79
2021/01/17 12:26:28;;;;;;;22.57;14.60;;;;;;;;;;4961354;28;20286;-80
2021/01/17 12:29:03;;;;;;;23.37;14.87;;;;;;;;;;4972886;28;20357;-80
2021/01/17 12:31:31;;;;;;;24.30;14.50;;;;;;;;;;4962575;28;20303;-79
2021/01/17 12:33:58;;;;;;;22.63;13.20;;;;;;;;;;4958971;28;20258;-78
2021/01/17 12:36:25;;;;;;;22.43;14.07;;;;;;;;;;4963509;28;20290;-79
2021/01/17 12:38:51;;;;;;;22.43;13.57;;;;;;;;;;4963849;28;20282;-79
2021/01/17 12:41:25;;;;;;;21.07;13.47;;;;;;;;;;4977103;28;20346;-80
2021/01/17 12:43:52;;;;;;;23.97;14.77;;;;;;;;;;4961979;28;20278;-80
2021/01/17 12:46:18;;;;;;;28.03;15.13;;;;;;;;;;4964857;28;20281;-79
2021/01/17 12:48:44;;;;;;;24.43;13.63;;;;;;;;;;4980616;28;20281;-79
2021/01/17 12:51:11;;;;;;;25.20;14.30;;;;;;;;;;4979816;28;20333;-79
2021/01/17 12:53:38;;;;;;;26.53;15.43;;;;;;;;;;4966116;28;20279;-79
2021/01/17 12:56:05;;;;;;;21.77;13.63;;;;;;;;;;4960127;29;20590;-79
2021/01/17 12:58:32;;;;;;;24.23;14.40;;;;;;;;;;4960418;28;20322;-80
2021/01/17 13:00:58;;;;;;;25.33;14.73;;;;;;;;;;4959746;29;20373;-79
2021/01/17 13:03:25;;;;;;;28.97;20.13;;;;;;;;;;4966850;28;20278;-80
2021/01/17 13:05:51;;;;;;;28.13;16.77;;;;;;;;;;4963583;28;21071;-79
2021/01/17 13:08:18;;;;;;;24.07;15.17;;;;;;;;;;4979546;28;20279;-79
2021/01/17 13:10:44;;;;;;;23.77;14.13;;;;;;;;;;4958862;28;20285;-79
2021/01/17 13:13:11;;;;;;;24.47;15.23;;;;;;;;;;4959997;28;20298;-80
2021/01/17 13:15:40;;;;;;;37.07;19.50;;;;;;;;;;4978315;28;20266;-79
2021/01/17 13:18:06;;;;;;;41.83;23.00;;;;;;;;;;4974059;28;20286;-79
2021/01/17 13:20:33;;;;;;;41.47;23.20;;;;;;;;;;4962387;28;20267;-79
2021/01/17 13:22:59;;;;;;;51.50;25.93;;;;;;;;;;4957234;28;20286;-79
2021/01/17 13:25:25;;;;;;;86.27;39.57;;;;;;;;;;4973672;28;20285;-79
2021/01/17 13:27:51;;;;;;;32.90;17.17;;;;;;;;;;4954897;28;20275;-79
2021/01/17 13:30:18;;;;;;;29.40;16.50;;;;;;;;;;4957377;28;20797;-79
2021/01/17 13:32:46;;;;;;;35.83;20.90;;;;;;;;;;4981200;28;20344;-79
2021/01/17 13:35:12;;;;;;;37.43;21.57;;;;;;;;;;4959665;28;20270;-80
2021/01/17 13:37:38;;;;;;;27.17;16.50;;;;;;;;;;4959109;28;20622;-80
2021/01/17 13:40:08;;;;;;;26.00;15.50;;;;;;;;;;4976714;28;20381;-80
2021/01/17 13:42:34;;;;;;;38.50;21.43;;;;;;;;;;4959487;28;20393;-79
2021/01/17 13:45:00;;;;;;;51.10;25.07;;;;;;;;;;4960632;28;20313;-79
2021/01/17 13:47:27;;;;;;;40.97;20.83;;;;;;;;;;4958478;28;20290;-79
2021/01/17 13:49:54;;;;;;;32.17;16.40;;;;;;;;;;4961381;28;20336;-79
2021/01/17 13:52:21;;;;;;;34.37;19.20;;;;;;;;;;4947312;28;20294;-79
2021/01/17 13:54:47;;;;;;;29.13;16.10;;;;;;;;;;4976163;28;20277;-79
2021/01/17 13:57:13;;;;;;;24.57;14.60;;;;;;;;;;4986326;28;20266;-79
2021/01/17 13:59:39;;;;;;;25.37;14.80;;;;;;;;;;4971174;28;20285;-79
2021/01/17 14:02:15;;;;;;;23.80;14.13;;;;;;;;;;4978597;28;20281;-80
2021/01/17 14:04:41;;;;;;;22.50;13.30;;;;;;;;;;4972444;28;20281;-79
2021/01/17 14:07:11;;;;;;;34.37;21.33;;;;;;;;;;4958255;28;20816;-79
2021/01/17 14:09:37;;;;;;;50.70;28.50;;;;;;;;;;4942660;28;20298;-80
2021/01/17 14:12:08;;;;;;;34.17;17.97;;;;;;;;;;4970188;28;20293;-80
2021/01/17 14:14:34;;;;;;;36.83;19.47;;;;;;;;;;4955525;29;20283;-80
2021/01/17 14:17:00;;;;;;;33.83;18.80;;;;;;;;;;4969170;28;20321;-79
2021/01/17 14:19:26;;;;;;;27.83;15.00;;;;;;;;;;4953047;28;20286;-80
2021/01/17 14:21:52;;;;;;;46.63;22.40;;;;;;;;;;4978330;28;20285;-81
2021/01/17 14:24:19;;;;;;;49.70;23.53;;;;;;;;;;4961043;28;20282;-79
2021/01/17 14:26:45;;;;;;;46.10;25.50;;;;;;;;;;4989763;28;20336;-79
2021/01/17 14:29:13;;;;;;;29.10;17.43;;;;;;;;;;4974999;28;20325;-78